sensor_id;sensor_type;location;lat;lon;timestamp;pressure;altitude;pressure_sealevel;temperature;humidity
11049;BME280;5577;42.706;23.160;2023-02-13T00:02:20;95816.03;;;-3.06;100.00
11049;BME280;5577;42.706;23.160;2023-02-13T00:05:04;95839.56;;;-2.96;100.00
11049;BME280;5577;42.706;23.160;2023-02-13T00:07:48;95841.06;;;-2.88;100.00
11049;BME280;5577;42.706;23.160;2023-02-13T00:10:33;95840.28;;;-2.88;100.00
11049;BME280;5577;42.706;23.160;2023-02-13T00:13:17;95837.25;;;-2.85;100.00
11049;BME280;5577;42.706;23.160;2023-02-13T00:16:02;95839.84;;;-2.85;100.00
11049;BME280;5577;42.706;23.160;2023-02-13T00:18:47;95835.09;;;-2.88;100.00
11049;BME280;5577;42.706;23.160;2023-02-13T00:21:31;95836.69;;;-2.87;100.00
11049;BME280;5577;42.706;23.160;2023-02-13T00:24:15;95838.69;;;-2.89;100.00
11049;BME280;5577;42.706;23.160;2023-02-13T00:26:59;95831.28;;;-2.86;100.00
11049;BME280;5577;42.706;23.160;2023-02-13T00:29:43;95840.16;;;-2.93;100.00
11049;BME280;5577;42.706;23.160;2023-02-13T00:32:27;95839.44;;;-3.01;100.00
11049;BME280;5577;42.706;23.160;2023-02-13T00:35:11;95809.06;;;-3.23;100.00
11049;BME280;5577;42.706;23.160;2023-02-13T00:37:56;95844.25;;;-3.16;100.00
11049;BME280;5577;42.706;23.160;2023-02-13T00:40:40;95843.44;;;-3.16;100.00
11049;BME280;5577;42.706;23.160;2023-02-13T00:43:24;95825.91;;;-3.32;100.00
11049;BME280;5577;42.706;23.160;2023-02-13T00:46:08;95836.47;;;-3.16;100.00
11049;BME280;5577;42.706;23.160;2023-02-13T00:48:52;95847.59;;;-3.15;100.00
11049;BME280;5577;42.706;23.160;2023-02-13T00:51:36;95837.69;;;-3.18;100.00
11049;BME280;5577;42.706;23.160;2023-02-13T00:54:20;95851.44;;;-3.18;100.00
11049;BME280;5577;42.706;23.160;2023-02-13T00:57:04;95849.28;;;-3.21;100.00
11049;BME280;5577;42.706;23.160;2023-02-13T00:59:48;95860.44;;;-3.20;100.00
11049;BME280;5577;42.706;23.160;2023-02-13T01:02:32;95877.22;;;-3.23;100.00
11049;BME280;5577;42.706;23.160;2023-02-13T01:05:18;95861.25;;;-3.20;100.00
11049;BME280;5577;42.706;23.160;2023-02-13T01:08:02;95857.13;;;-3.27;100.00
11049;BME280;5577;42.706;23.160;2023-02-13T01:10:47;95861.19;;;-3.31;100.00
11049;BME280;5577;42.706;23.160;2023-02-13T01:13:31;95854.56;;;-3.27;100.00
11049;BME280;5577;42.706;23.160;2023-02-13T01:16:15;95850.28;;;-3.22;100.00
11049;BME280;5577;42.706;23.160;2023-02-13T01:19:00;95854.88;;;-3.24;100.00
11049;BME280;5577;42.706;23.160;2023-02-13T01:21:44;95854.13;;;-3.24;100.00
11049;BME280;5577;42.706;23.160;2023-02-13T01:24:30;95862.00;;;-3.19;100.00
11049;BME280;5577;42.706;23.160;2023-02-13T01:27:15;95864.53;;;-3.31;100.00
11049;BME280;5577;42.706;23.160;2023-02-13T01:29:59;95860.66;;;-3.22;100.00
11049;BME280;5577;42.706;23.160;2023-02-13T01:32:45;95864.16;;;-3.16;100.00
11049;BME280;5577;42.706;23.160;2023-02-13T01:35:30;95863.31;;;-3.10;100.00
11049;BME280;5577;42.706;23.160;2023-02-13T01:38:15;95859.53;;;-2.96;100.00
11049;BME280;5577;42.706;23.160;2023-02-13T01:40:59;95818.16;;;-3.32;100.00
11049;BME280;5577;42.706;23.160;2023-02-13T01:46:36;95859.16;;;-3.00;100.00
11049;BME280;5577;42.706;23.160;2023-02-13T01:49:24;95860.50;;;-2.97;100.00
11049;BME280;5577;42.706;23.160;2023-02-13T01:52:09;95863.91;;;-2.97;100.00
11049;BME280;5577;42.706;23.160;2023-02-13T01:54:54;95867.75;;;-2.99;100.00
11049;BME280;5577;42.706;23.160;2023-02-13T01:57:40;95863.63;;;-3.07;100.00
11049;BME280;5577;42.706;23.160;2023-02-13T02:00:26;95882.91;;;-3.03;100.00
11049;BME280;5577;42.706;23.160;2023-02-13T02:03:14;95882.41;;;-2.93;100.00
11049;BME280;5577;42.706;23.160;2023-02-13T02:06:01;95875.22;;;-3.09;100.00
11049;BME280;5577;42.706;23.160;2023-02-13T02:08:46;95872.22;;;-3.06;100.00
11049;BME280;5577;42.706;23.160;2023-02-13T02:11:35;95872.66;;;-3.09;100.00
11049;BME280;5577;42.706;23.160;2023-02-13T02:14:22;95868.63;;;-3.23;100.00
11049;BME280;5577;42.706;23.160;2023-02-13T02:17:06;95880.94;;;-3.19;100.00
11049;BME280;5577;42.706;23.160;2023-02-13T02:44:07;95881.34;;;-3.04;100.00
11049;BME280;5577;42.706;23.160;2023-02-13T02:50:33;95892.06;;;-3.18;100.00
11049;BME280;5577;42.706;23.160;2023-02-13T02:54:23;95899.78;;;-3.12;100.00
11049;BME280;5577;42.706;23.160;2023-02-13T02:56:43;95908.69;;;-3.08;100.00
11049;BME280;5577;42.706;23.160;2023-02-13T02:59:28;95887.38;;;-2.91;100.00
11049;BME280;5577;42.706;23.160;2023-02-13T03:02:33;95901.28;;;-2.74;100.00
11049;BME280;5577;42.706;23.160;2023-02-13T03:05:39;95900.41;;;-2.68;100.00
11049;BME280;5577;42.706;23.160;2023-02-13T03:08:53;95897.59;;;-2.67;100.00
11049;BME280;5577;42.706;23.160;2023-02-13T03:11:56;95884.19;;;-2.64;100.00
11049;BME280;5577;42.706;23.160;2023-02-13T03:15:00;95898.09;;;-2.47;100.00
11049;BME280;5577;42.706;23.160;2023-02-13T03:17:44;95872.19;;;-2.47;100.00
11049;BME280;5577;42.706;23.160;2023-02-13T03:21:06;95895.00;;;-2.26;100.00
11049;BME280;5577;42.706;23.160;2023-02-13T03:24:27;95888.81;;;-2.02;100.00
11049;BME280;5577;42.706;23.160;2023-02-13T03:27:25;95889.94;;;-1.98;100.00
11049;BME280;5577;42.706;23.160;2023-02-13T03:42:53;95893.09;;;-1.73;100.00
11049;BME280;5577;42.706;23.160;2023-02-13T03:45:42;95848.06;;;-1.90;100.00
11049;BME280;5577;42.706;23.160;2023-02-13T03:48:39;95883.75;;;-1.74;100.00
11049;BME280;5577;42.706;23.160;2023-02-13T03:51:49;95882.28;;;-1.81;100.00
11049;BME280;5577;42.706;23.160;2023-02-13T03:54:47;95892.31;;;-1.85;100.00
11049;BME280;5577;42.706;23.160;2023-02-13T03:57:56;95874.94;;;-1.96;100.00
11049;BME280;5577;42.706;23.160;2023-02-13T04:01:02;95882.94;;;-1.97;100.00
11049;BME280;5577;42.706;23.160;2023-02-13T04:04:10;95881.78;;;-2.13;100.00
11049;BME280;5577;42.706;23.160;2023-02-13T04:07:05;95884.63;;;-2.26;100.00
11049;BME280;5577;42.706;23.160;2023-02-13T04:09:50;95887.41;;;-2.39;100.00
11049;BME280;5577;42.706;23.160;2023-02-13T04:13:22;95894.28;;;-2.44;100.00
11049;BME280;5577;42.706;23.160;2023-02-13T04:15:53;95884.75;;;-2.62;100.00
11049;BME280;5577;42.706;23.160;2023-02-13T04:18:39;95907.84;;;-2.60;100.00
11049;BME280;5577;42.706;23.160;2023-02-13T04:21:24;95865.97;;;-2.87;100.00
11049;BME280;5577;42.706;23.160;2023-02-13T04:24:08;95912.72;;;-2.64;100.00
11049;BME280;5577;42.706;23.160;2023-02-13T04:26:53;95912.06;;;-2.89;100.00
11049;BME280;5577;42.706;23.160;2023-02-13T04:29:37;95907.63;;;-2.88;100.00
11049;BME280;5577;42.706;23.160;2023-02-13T04:32:21;95911.63;;;-2.86;100.00
11049;BME280;5577;42.706;23.160;2023-02-13T04:35:05;95917.56;;;-2.85;100.00
11049;BME280;5577;42.706;23.160;2023-02-13T04:37:49;95910.06;;;-2.75;100.00
11049;BME280;5577;42.706;23.160;2023-02-13T04:40:34;95906.94;;;-2.77;100.00
11049;BME280;5577;42.706;23.160;2023-02-13T04:43:18;95903.31;;;-2.76;100.00
11049;BME280;5577;42.706;23.160;2023-02-13T04:46:02;95902.66;;;-2.72;100.00
11049;BME280;5577;42.706;23.160;2023-02-13T04:48:46;95902.19;;;-2.80;100.00
11049;BME280;5577;42.706;23.160;2023-02-13T04:51:30;95886.13;;;-2.89;100.00
11049;BME280;5577;42.706;23.160;2023-02-13T04:54:15;95897.69;;;-2.73;100.00
11049;BME280;5577;42.706;23.160;2023-02-13T04:56:59;95892.19;;;-2.65;100.00
11049;BME280;5577;42.706;23.160;2023-02-13T04:59:42;95899.44;;;-2.56;100.00
11049;BME280;5577;42.706;23.160;2023-02-13T05:02:27;95905.75;;;-2.52;100.00
11049;BME280;5577;42.706;23.160;2023-02-13T05:05:11;95916.22;;;-2.58;100.00
11049;BME280;5577;42.706;23.160;2023-02-13T05:07:54;95922.84;;;-2.62;100.00
11049;BME280;5577;42.706;23.160;2023-02-13T05:10:38;95913.47;;;-2.75;100.00
11049;BME280;5577;42.706;23.160;2023-02-13T05:13:22;95923.03;;;-2.75;100.00
11049;BME280;5577;42.706;23.160;2023-02-13T05:16:06;95921.31;;;-2.81;100.00
11049;BME280;5577;42.706;23.160;2023-02-13T05:18:50;95920.97;;;-2.85;100.00
11049;BME280;5577;42.706;23.160;2023-02-13T05:21:37;95925.72;;;-2.82;100.00
11049;BME280;5577;42.706;23.160;2023-02-13T05:24:40;95924.91;;;-2.82;100.00
11049;BME280;5577;42.706;23.160;2023-02-13T05:27:24;95924.16;;;-2.71;100.00
11049;BME280;5577;42.706;23.160;2023-02-13T05:30:08;95928.59;;;-2.60;100.00
11049;BME280;5577;42.706;23.160;2023-02-13T05:32:53;95911.03;;;-2.58;100.00
11049;BME280;5577;42.706;23.160;2023-02-13T05:35:37;95931.81;;;-2.35;100.00
11049;BME280;5577;42.706;23.160;2023-02-13T05:38:21;95933.44;;;-2.34;100.00
11049;BME280;5577;42.706;23.160;2023-02-13T05:41:05;95936.56;;;-2.32;100.00
11049;BME280;5577;42.706;23.160;2023-02-13T05:43:49;95936.03;;;-2.34;100.00
11049;BME280;5577;42.706;23.160;2023-02-13T05:46:33;95924.53;;;-2.27;100.00
11049;BME280;5577;42.706;23.160;2023-02-13T05:49:18;95938.94;;;-2.31;100.00
11049;BME280;5577;42.706;23.160;2023-02-13T05:52:02;95943.69;;;-2.28;100.00
11049;BME280;5577;42.706;23.160;2023-02-13T05:54:46;95949.81;;;-2.22;100.00
11049;BME280;5577;42.706;23.160;2023-02-13T05:57:30;95951.97;;;-2.08;100.00
11049;BME280;5577;42.706;23.160;2023-02-13T06:00:15;95938.53;;;-2.16;100.00
11049;BME280;5577;42.706;23.160;2023-02-13T06:02:59;95940.72;;;-1.90;100.00
11049;BME280;5577;42.706;23.160;2023-02-13T06:05:43;95948.28;;;-1.89;100.00
11049;BME280;5577;42.706;23.160;2023-02-13T06:08:27;95949.75;;;-1.81;100.00
11049;BME280;5577;42.706;23.160;2023-02-13T06:11:11;95948.41;;;-1.72;100.00
11049;BME280;5577;42.706;23.160;2023-02-13T06:13:55;95957.66;;;-1.65;100.00
11049;BME280;5577;42.706;23.160;2023-02-13T06:16:41;95946.47;;;-1.65;100.00
11049;BME280;5577;42.706;23.160;2023-02-13T06:19:26;95972.34;;;-1.59;100.00
11049;BME280;5577;42.706;23.160;2023-02-13T06:22:10;95958.03;;;-1.61;100.00
11049;BME280;5577;42.706;23.160;2023-02-13T06:24:54;95955.88;;;-1.64;100.00
11049;BME280;5577;42.706;23.160;2023-02-13T06:27:38;95964.66;;;-1.65;100.00
11049;BME280;5577;42.706;23.160;2023-02-13T06:30:22;95963.41;;;-1.51;100.00
11049;BME280;5577;42.706;23.160;2023-02-13T06:33:06;95959.69;;;-1.32;100.00
11049;BME280;5577;42.706;23.160;2023-02-13T06:35:50;95964.88;;;-1.21;100.00
11049;BME280;5577;42.706;23.160;2023-02-13T06:38:34;95965.34;;;-1.24;100.00
11049;BME280;5577;42.706;23.160;2023-02-13T06:41:17;95964.63;;;-1.08;100.00
11049;BME280;5577;42.706;23.160;2023-02-13T06:44:01;95946.41;;;-0.96;100.00
11049;BME280;5577;42.706;23.160;2023-02-13T06:46:45;95978.22;;;-0.66;100.00
11049;BME280;5577;42.706;23.160;2023-02-13T06:49:29;95971.56;;;-0.46;100.00
11049;BME280;5577;42.706;23.160;2023-02-13T06:52:13;95973.69;;;-0.31;100.00
11049;BME280;5577;42.706;23.160;2023-02-13T06:54:57;95971.34;;;-0.16;100.00
11049;BME280;5577;42.706;23.160;2023-02-13T06:57:43;95974.13;;;-0.06;100.00
11049;BME280;5577;42.706;23.160;2023-02-13T07:00:27;95970.50;;;0.12;100.00
11049;BME280;5577;42.706;23.160;2023-02-13T07:03:11;95968.44;;;0.30;100.00
11049;BME280;5577;42.706;23.160;2023-02-13T07:05:55;95967.16;;;0.49;100.00
11049;BME280;5577;42.706;23.160;2023-02-13T07:08:39;95973.00;;;0.56;100.00
11049;BME280;5577;42.706;23.160;2023-02-13T07:11:24;95962.47;;;0.46;100.00
11049;BME280;5577;42.706;23.160;2023-02-13T07:14:08;95960.31;;;0.60;100.00
11049;BME280;5577;42.706;23.160;2023-02-13T07:16:52;95957.28;;;0.68;100.00
11049;BME280;5577;42.706;23.160;2023-02-13T07:19:36;95969.97;;;0.81;100.00
11049;BME280;5577;42.706;23.160;2023-02-13T07:22:20;95973.63;;;1.01;100.00
11049;BME280;5577;42.706;23.160;2023-02-13T07:25:05;95980.63;;;1.17;100.00
11049;BME280;5577;42.706;23.160;2023-02-13T07:27:49;95972.69;;;1.29;100.00
11049;BME280;5577;42.706;23.160;2023-02-13T07:30:33;95969.78;;;1.47;100.00
11049;BME280;5577;42.706;23.160;2023-02-13T07:33:17;95980.84;;;1.59;100.00
11049;BME280;5577;42.706;23.160;2023-02-13T07:36:02;95893.16;;;1.10;100.00
11049;BME280;5577;42.706;23.160;2023-02-13T07:38:46;95979.19;;;1.74;100.00
11049;BME280;5577;42.706;23.160;2023-02-13T07:41:30;95972.75;;;1.82;100.00
11049;BME280;5577;42.706;23.160;2023-02-13T07:44:14;95969.25;;;1.71;100.00
11049;BME280;5577;42.706;23.160;2023-02-13T07:46:58;95976.06;;;1.72;100.00
11049;BME280;5577;42.706;23.160;2023-02-13T07:49:43;95968.66;;;1.91;100.00
11049;BME280;5577;42.706;23.160;2023-02-13T07:52:27;95969.56;;;2.01;100.00
11049;BME280;5577;42.706;23.160;2023-02-13T07:55:11;95953.63;;;2.03;100.00
11049;BME280;5577;42.706;23.160;2023-02-13T07:57:55;95971.34;;;2.27;100.00
11049;BME280;5577;42.706;23.160;2023-02-13T08:00:39;95961.34;;;2.19;100.00
11049;BME280;5577;42.706;23.160;2023-02-13T08:03:23;95975.47;;;2.18;100.00
11049;BME280;5577;42.706;23.160;2023-02-13T08:06:08;95974.72;;;1.96;100.00
11049;BME280;5577;42.706;23.160;2023-02-13T08:08:52;95981.03;;;2.00;100.00
11049;BME280;5577;42.706;23.160;2023-02-13T08:11:56;95977.66;;;2.05;100.00
11049;BME280;5577;42.706;23.160;2023-02-13T08:14:41;95973.09;;;2.17;100.00
11049;BME280;5577;42.706;23.160;2023-02-13T08:17:25;95967.44;;;2.30;100.00
11049;BME280;5577;42.706;23.160;2023-02-13T08:20:09;95972.75;;;2.08;100.00
11049;BME280;5577;42.706;23.160;2023-02-13T08:22:53;95963.94;;;2.14;100.00
11049;BME280;5577;42.706;23.160;2023-02-13T08:25:37;95968.44;;;2.24;100.00
11049;BME280;5577;42.706;23.160;2023-02-13T08:28:21;95962.72;;;2.27;100.00
11049;BME280;5577;42.706;23.160;2023-02-13T08:31:12;95965.44;;;2.10;100.00
11049;BME280;5577;42.706;23.160;2023-02-13T08:33:56;95959.00;;;2.23;100.00
11049;BME280;5577;42.706;23.160;2023-02-13T08:36:40;95957.72;;;1.94;100.00
11049;BME280;5577;42.706;23.160;2023-02-13T08:39:24;95965.84;;;2.24;100.00
11049;BME280;5577;42.706;23.160;2023-02-13T08:42:08;95969.94;;;2.46;100.00
11049;BME280;5577;42.706;23.160;2023-02-13T08:44:52;95963.66;;;2.47;100.00
11049;BME280;5577;42.706;23.160;2023-02-13T08:47:37;95964.50;;;2.58;100.00
11049;BME280;5577;42.706;23.160;2023-02-13T08:50:22;95958.09;;;2.75;100.00
11049;BME280;5577;42.706;23.160;2023-02-13T08:53:07;95964.72;;;2.93;100.00
11049;BME280;5577;42.706;23.160;2023-02-13T08:55:56;95964.78;;;3.03;100.00
11049;BME280;5577;42.706;23.160;2023-02-13T08:58:40;95963.53;;;3.11;100.00
11049;BME280;5577;42.706;23.160;2023-02-13T09:01:24;95963.72;;;2.99;100.00
11049;BME280;5577;42.706;23.160;2023-02-13T09:04:08;95962.59;;;2.85;100.00
11049;BME280;5577;42.706;23.160;2023-02-13T09:06:52;95961.88;;;2.94;100.00
11049;BME280;5577;42.706;23.160;2023-02-13T09:09:36;95969.63;;;3.26;100.00
11049;BME280;5577;42.706;23.160;2023-02-13T09:12:20;95957.34;;;3.32;100.00
11049;BME280;5577;42.706;23.160;2023-02-13T09:15:04;95918.94;;;2.90;100.00
11049;BME280;5577;42.706;23.160;2023-02-13T09:17:50;95926.94;;;3.21;100.00
11049;BME280;5577;42.706;23.160;2023-02-13T09:20:33;95963.97;;;3.54;100.00
11049;BME280;5577;42.706;23.160;2023-02-13T09:23:18;95965.75;;;3.44;100.00
11049;BME280;5577;42.706;23.160;2023-02-13T09:26:03;95963.47;;;3.57;100.00
11049;BME280;5577;42.706;23.160;2023-02-13T09:28:48;95967.72;;;3.78;100.00
11049;BME280;5577;42.706;23.160;2023-02-13T09:31:31;95959.06;;;3.73;100.00
11049;BME280;5577;42.706;23.160;2023-02-13T09:34:15;95964.03;;;3.79;100.00
11049;BME280;5577;42.706;23.160;2023-02-13T09:36:59;95960.94;;;4.12;100.00
11049;BME280;5577;42.706;23.160;2023-02-13T09:39:44;95910.66;;;4.20;100.00
11049;BME280;5577;42.706;23.160;2023-02-13T09:42:32;95956.50;;;4.53;100.00
11049;BME280;5577;42.706;23.160;2023-02-13T09:45:20;95952.31;;;4.52;100.00
11049;BME280;5577;42.706;23.160;2023-02-13T09:48:05;95942.63;;;4.52;100.00
11049;BME280;5577;42.706;23.160;2023-02-13T09:50:49;95947.84;;;4.62;100.00
11049;BME280;5577;42.706;23.160;2023-02-13T09:53:34;95946.53;;;4.75;100.00
11049;BME280;5577;42.706;23.160;2023-02-13T09:56:35;95940.44;;;4.99;100.00
11049;BME280;5577;42.706;23.160;2023-02-13T09:59:32;95931.06;;;6.01;100.00
11049;BME280;5577;42.706;23.160;2023-02-13T10:02:57;95915.63;;;9.21;96.45
11049;BME280;5577;42.706;23.160;2023-02-13T10:06:04;95922.75;;;9.07;72.06
11049;BME280;5577;42.706;23.160;2023-02-13T10:12:20;95920.72;;;9.44;66.73
11049;BME280;5577;42.706;23.160;2023-02-13T10:18:09;95913.88;;;12.06;54.67
11049;BME280;5577;42.706;23.160;2023-02-13T10:20:58;95901.88;;;13.52;49.14
11049;BME280;5577;42.706;23.160;2023-02-13T10:23:58;95896.81;;;12.75;48.34
11049;BME280;5577;42.706;23.160;2023-02-13T10:26:45;95899.19;;;12.51;47.55
11049;BME280;5577;42.706;23.160;2023-02-13T10:29:41;95883.97;;;13.32;46.53
11049;BME280;5577;42.706;23.160;2023-02-13T10:57:32;95839.84;;;19.52;31.55
11049;BME280;5577;42.706;23.160;2023-02-13T11:03:31;95826.75;;;20.03;30.50
11049;BME280;5577;42.706;23.160;2023-02-13T11:06:16;95819.19;;;19.56;31.08
11049;BME280;5577;42.706;23.160;2023-02-13T11:09:01;95815.56;;;19.00;31.57
11049;BME280;5577;42.706;23.160;2023-02-13T11:11:45;95812.53;;;19.02;31.97
11049;BME280;5577;42.706;23.160;2023-02-13T11:14:28;95814.56;;;20.39;30.50
11049;BME280;5577;42.706;23.160;2023-02-13T11:17:16;95799.94;;;20.36;29.44
11049;BME280;5577;42.706;23.160;2023-02-13T11:20:05;95801.06;;;18.60;31.46
11049;BME280;5577;42.706;23.160;2023-02-13T11:22:50;95795.47;;;19.88;30.06
11049;BME280;5577;42.706;23.160;2023-02-13T11:25:37;95790.53;;;19.15;29.67
11049;BME280;5577;42.706;23.160;2023-02-13T11:28:21;95783.22;;;17.91;32.35
11049;BME280;5577;42.706;23.160;2023-02-13T11:31:32;95774.34;;;19.34;29.93
11049;BME280;5577;42.706;23.160;2023-02-13T11:39:57;95759.66;;;18.80;29.85
11049;BME280;5577;42.706;23.160;2023-02-13T11:42:41;95742.25;;;17.37;31.11
11049;BME280;5577;42.706;23.160;2023-02-13T11:45:25;95751.16;;;16.32;33.31
11049;BME280;5577;42.706;23.160;2023-02-13T11:48:20;95754.38;;;14.83;35.68
11049;BME280;5577;42.706;23.160;2023-02-13T11:51:05;95745.47;;;13.37;37.80
11049;BME280;5577;42.706;23.160;2023-02-13T11:53:49;95734.16;;;13.19;38.55
11049;BME280;5577;42.706;23.160;2023-02-13T11:56:50;95729.22;;;12.72;39.72
11049;BME280;5577;42.706;23.160;2023-02-13T11:59:40;95737.34;;;13.13;39.57
11049;BME280;5577;42.706;23.160;2023-02-13T12:02:30;95725.50;;;12.64;39.32
11049;BME280;5577;42.706;23.160;2023-02-13T12:05:26;95720.47;;;11.36;42.06
11049;BME280;5577;42.706;23.160;2023-02-13T12:08:11;95710.56;;;10.77;43.42
11049;BME280;5577;42.706;23.160;2023-02-13T12:10:56;95716.66;;;10.08;45.41
11049;BME280;5577;42.706;23.160;2023-02-13T12:13:41;95676.09;;;10.21;45.20
11049;BME280;5577;42.706;23.160;2023-02-13T12:16:39;95707.91;;;10.30;45.16
11049;BME280;5577;42.706;23.160;2023-02-13T12:19:36;95697.47;;;10.81;43.83
11049;BME280;5577;42.706;23.160;2023-02-13T12:22:51;95703.13;;;11.64;43.42
11049;BME280;5577;42.706;23.160;2023-02-13T12:28:53;95701.72;;;13.05;39.71
11049;BME280;5577;42.706;23.160;2023-02-13T12:41:05;95685.09;;;16.95;34.14
11049;BME280;5577;42.706;23.160;2023-02-13T12:44:16;95680.66;;;17.91;31.83
11049;BME280;5577;42.706;23.160;2023-02-13T12:47:28;95674.28;;;17.07;32.05
11049;BME280;5577;42.706;23.160;2023-02-13T12:50:28;95671.72;;;16.33;33.40
11049;BME280;5577;42.706;23.160;2023-02-13T12:53:42;95680.78;;;15.30;35.26
11049;BME280;5577;42.706;23.160;2023-02-13T12:59:26;95680.56;;;12.80;38.79
11049;BME280;5577;42.706;23.160;2023-02-13T13:15:31;95662.03;;;10.51;43.73
11049;BME280;5577;42.706;23.160;2023-02-13T13:21:38;95648.31;;;15.68;36.04
11049;BME280;5577;42.706;23.160;2023-02-13T13:27:33;95639.34;;;18.14;31.72
11049;BME280;5577;42.706;23.160;2023-02-13T13:30:28;95637.25;;;19.24;30.22
11049;BME280;5577;42.706;23.160;2023-02-13T13:51:23;95640.03;;;16.62;32.51
11049;BME280;5577;42.706;23.160;2023-02-13T14:02:43;95639.94;;;11.58;41.38
11049;BME280;5577;42.706;23.160;2023-02-13T14:05:32;95636.41;;;10.94;42.46
11049;BME280;5577;42.706;23.160;2023-02-13T14:11:40;95631.81;;;10.61;43.55
11049;BME280;5577;42.706;23.160;2023-02-13T14:17:14;95627.63;;;12.75;40.32
11049;BME280;5577;42.706;23.160;2023-02-13T14:19:59;95629.31;;;13.20;39.15
11049;BME280;5577;42.706;23.160;2023-02-13T14:22:43;95622.88;;;13.42;38.36
11049;BME280;5577;42.706;23.160;2023-02-13T14:25:27;95613.13;;;13.13;38.66
11049;BME280;5577;42.706;23.160;2023-02-13T14:28:39;95621.44;;;12.83;38.98
11049;BME280;5577;42.706;23.160;2023-02-13T14:37:15;95620.59;;;12.91;38.05
11049;BME280;5577;42.706;23.160;2023-02-13T14:40:29;95628.44;;;10.13;43.06
11049;BME280;5577;42.706;23.160;2023-02-13T14:43:18;95622.22;;;8.90;46.33
11049;BME280;5577;42.706;23.160;2023-02-13T14:46:34;95622.25;;;8.27;48.56
11049;BME280;5577;42.706;23.160;2023-02-13T14:55:34;95622.34;;;7.36;52.46
11049;BME280;5577;42.706;23.160;2023-02-13T14:58:34;95623.56;;;6.93;54.67
11049;BME280;5577;42.706;23.160;2023-02-13T15:01:34;95589.94;;;6.53;56.41
11049;BME280;5577;42.706;23.160;2023-02-13T15:04:30;95622.53;;;6.57;58.57
11049;BME280;5577;42.706;23.160;2023-02-13T15:07:19;95626.59;;;6.45;60.44
11049;BME280;5577;42.706;23.160;2023-02-13T15:13:23;95626.38;;;6.23;63.60
11049;BME280;5577;42.706;23.160;2023-02-13T15:16:10;95590.53;;;5.84;65.29
11049;BME280;5577;42.706;23.160;2023-02-13T15:18:56;95624.59;;;5.94;67.72
11049;BME280;5577;42.706;23.160;2023-02-13T15:21:47;95624.16;;;5.87;68.68
11049;BME280;5577;42.706;23.160;2023-02-13T15:24:38;95625.97;;;5.63;72.19
11049;BME280;5577;42.706;23.160;2023-02-13T15:27:33;95632.47;;;5.42;75.08
11049;BME280;5577;42.706;23.160;2023-02-13T15:30:23;95634.63;;;5.35;76.99
11049;BME280;5577;42.706;23.160;2023-02-13T15:33:19;95638.13;;;5.26;78.76
11049;BME280;5577;42.706;23.160;2023-02-13T15:36:05;95631.13;;;5.16;80.16
11049;BME280;5577;42.706;23.160;2023-02-13T15:38:48;95641.44;;;5.08;82.43
11049;BME280;5577;42.706;23.160;2023-02-13T15:41:39;95640.75;;;4.92;84.00
11049;BME280;5577;42.706;23.160;2023-02-13T15:44:28;95636.09;;;4.84;85.56
11049;BME280;5577;42.706;23.160;2023-02-13T15:47:27;95649.56;;;4.73;86.96
11049;BME280;5577;42.706;23.160;2023-02-13T15:50:18;95651.25;;;4.49;90.57
11049;BME280;5577;42.706;23.160;2023-02-13T15:53:04;95653.91;;;4.44;90.74
11049;BME280;5577;42.706;23.160;2023-02-13T15:55:59;95660.03;;;4.24;95.15
11049;BME280;5577;42.706;23.160;2023-02-13T15:58:43;95654.31;;;4.17;95.30
11049;BME280;5577;42.706;23.160;2023-02-13T16:01:28;95642.31;;;3.96;100.00
11049;BME280;5577;42.706;23.160;2023-02-13T16:04:15;95655.69;;;3.95;100.00
11049;BME280;5577;42.706;23.160;2023-02-13T16:07:00;95662.28;;;3.82;100.00
11049;BME280;5577;42.706;23.160;2023-02-13T16:09:45;95664.44;;;3.60;100.00
11049;BME280;5577;42.706;23.160;2023-02-13T16:12:30;95663.13;;;3.53;100.00
11049;BME280;5577;42.706;23.160;2023-02-13T16:15:16;95672.81;;;3.47;100.00
11049;BME280;5577;42.706;23.160;2023-02-13T16:18:01;95666.03;;;3.46;100.00
11049;BME280;5577;42.706;23.160;2023-02-13T16:20:52;95668.66;;;3.46;100.00
11049;BME280;5577;42.706;23.160;2023-02-13T16:23:37;95671.53;;;3.35;100.00
11049;BME280;5577;42.706;23.160;2023-02-13T16:26:21;95666.03;;;3.31;100.00
11049;BME280;5577;42.706;23.160;2023-02-13T16:29:08;95679.09;;;3.31;100.00
11049;BME280;5577;42.706;23.160;2023-02-13T16:32:02;95675.97;;;3.19;100.00
11049;BME280;5577;42.706;23.160;2023-02-13T16:34:48;95679.63;;;3.08;100.00
11049;BME280;5577;42.706;23.160;2023-02-13T16:37:33;95689.56;;;3.06;100.00
11049;BME280;5577;42.706;23.160;2023-02-13T16:43:43;95673.09;;;2.95;100.00
11049;BME280;5577;42.706;23.160;2023-02-13T16:46:46;95678.84;;;2.92;100.00
11049;BME280;5577;42.706;23.160;2023-02-13T16:49:33;95654.47;;;2.72;100.00
11049;BME280;5577;42.706;23.160;2023-02-13T16:52:23;95680.66;;;2.77;100.00
11049;BME280;5577;42.706;23.160;2023-02-13T16:55:14;95678.00;;;2.72;100.00
11049;BME280;5577;42.706;23.160;2023-02-13T16:58:02;95676.19;;;2.72;100.00
11049;BME280;5577;42.706;23.160;2023-02-13T17:00:49;95671.47;;;2.64;100.00
11049;BME280;5577;42.706;23.160;2023-02-13T17:03:33;95668.88;;;2.64;100.00
11049;BME280;5577;42.706;23.160;2023-02-13T17:06:17;95666.22;;;2.59;100.00
11049;BME280;5577;42.706;23.160;2023-02-13T17:09:01;95668.06;;;2.64;100.00
11049;BME280;5577;42.706;23.160;2023-02-13T17:11:49;95662.03;;;2.63;100.00
11049;BME280;5577;42.706;23.160;2023-02-13T17:14:34;95673.81;;;2.61;100.00
11049;BME280;5577;42.706;23.160;2023-02-13T17:17:20;95669.88;;;2.53;100.00
11049;BME280;5577;42.706;23.160;2023-02-13T17:20:07;95675.13;;;2.53;100.00
11049;BME280;5577;42.706;23.160;2023-02-13T17:22:53;95667.78;;;2.55;100.00
11049;BME280;5577;42.706;23.160;2023-02-13T17:25:38;95670.91;;;2.52;100.00
11049;BME280;5577;42.706;23.160;2023-02-13T17:28:25;95667.28;;;2.53;100.00
11049;BME280;5577;42.706;23.160;2023-02-13T17:31:10;95681.63;;;2.46;100.00
11049;BME280;5577;42.706;23.160;2023-02-13T17:33:55;95675.59;;;2.45;100.00
11049;BME280;5577;42.706;23.160;2023-02-13T17:36:38;95675.84;;;2.44;100.00
11049;BME280;5577;42.706;23.160;2023-02-13T17:39:22;95676.66;;;2.39;100.00